sensor_id;sensor_type;location;lat;lon;timestamp;pressure;altitude;pressure_sealevel;temperature;humidity
22964;BME280;11648;49.306;6.934;2022-09-09T00:00:50;97953.97;;;20.99;nan
22964;BME280;11648;49.306;6.934;2022-09-09T00:03:27;97954.63;;;21.02;nan
22964;BME280;11648;49.306;6.934;2022-09-09T00:11:36;97943.13;;;21.16;nan
22964;BME280;11648;49.306;6.934;2022-09-09T00:14:32;97943.13;;;21.16;nan
22964;BME280;11648;49.306;6.934;2022-09-09T00:17:01;97952.00;;;21.16;nan
22964;BME280;11648;49.306;6.934;2022-09-09T00:19:46;97931.66;;;21.14;nan
22964;BME280;11648;49.306;6.934;2022-09-09T00:22:19;97935.88;;;21.18;nan
22964;BME280;11648;49.306;6.934;2022-09-09T00:24:54;97929.25;;;21.24;nan
22964;BME280;11648;49.306;6.934;2022-09-09T00:30:32;97935.00;;;21.17;nan
22964;BME280;11648;49.306;6.934;2022-09-09T00:33:10;97935.28;;;21.13;nan
22964;BME280;11648;49.306;6.934;2022-09-09T00:35:48;97934.34;;;21.14;nan
22964;BME280;11648;49.306;6.934;2022-09-09T00:38:16;97936.81;;;21.17;nan
22964;BME280;11648;49.306;6.934;2022-09-09T00:41:02;97937.97;;;21.13;nan
22964;BME280;11648;49.306;6.934;2022-09-09T00:43:35;97940.91;;;21.08;nan
22964;BME280;11648;49.306;6.934;2022-09-09T00:51:29;97943.63;;;20.79;nan
22964;BME280;11648;49.306;6.934;2022-09-09T00:59:48;97946.72;;;20.57;nan
22964;BME280;11648;49.306;6.934;2022-09-09T01:02:27;97948.97;;;20.49;nan
22964;BME280;11648;49.306;6.934;2022-09-09T01:05:07;97947.25;;;20.48;nan
22964;BME280;11648;49.306;6.934;2022-09-09T01:07:36;97942.69;;;20.50;nan
22964;BME280;11648;49.306;6.934;2022-09-09T01:10:24;97945.44;;;20.48;nan
22964;BME280;11648;49.306;6.934;2022-09-09T01:12:56;97943.13;;;20.42;nan
22964;BME280;11648;49.306;6.934;2022-09-09T01:15:29;97940.44;;;20.42;nan
22964;BME280;11648;49.306;6.934;2022-09-09T01:18:02;97946.47;;;20.46;nan
22964;BME280;11648;49.306;6.934;2022-09-09T01:20:47;97948.56;;;20.41;nan
22964;BME280;11648;49.306;6.934;2022-09-09T01:26:19;97957.63;;;20.38;nan
22964;BME280;11648;49.306;6.934;2022-09-09T01:28:50;97958.50;;;20.39;nan
22964;BME280;11648;49.306;6.934;2022-09-09T01:31:27;97959.44;;;20.38;nan
22964;BME280;11648;49.306;6.934;2022-09-09T01:33:55;97958.56;;;20.37;nan
22964;BME280;11648;49.306;6.934;2022-09-09T01:36:45;97956.94;;;20.35;nan
22964;BME280;11648;49.306;6.934;2022-09-09T01:39:13;97946.94;;;20.38;nan
22964;BME280;11648;49.306;6.934;2022-09-09T01:41:40;97945.97;;;20.39;nan
22964;BME280;11648;49.306;6.934;2022-09-09T01:44:10;97952.88;;;20.43;nan
22964;BME280;11648;49.306;6.934;2022-09-09T01:46:40;97950.59;;;20.51;nan
22964;BME280;11648;49.306;6.934;2022-09-09T01:49:13;97949.38;;;20.57;nan
22964;BME280;11648;49.306;6.934;2022-09-09T01:51:43;97962.38;;;20.63;nan
22964;BME280;11648;49.306;6.934;2022-09-09T01:54:13;97945.59;;;20.61;nan
22964;BME280;11648;49.306;6.934;2022-09-09T01:56:42;97953.16;;;20.68;nan
22964;BME280;11648;49.306;6.934;2022-09-09T02:02:32;97950.50;;;20.83;nan
22964;BME280;11648;49.306;6.934;2022-09-09T02:05:28;97946.09;;;20.82;nan
22964;BME280;11648;49.306;6.934;2022-09-09T02:08:42;97941.34;;;20.87;nan
22964;BME280;11648;49.306;6.934;2022-09-09T02:11:14;97941.50;;;20.84;nan
22964;BME280;11648;49.306;6.934;2022-09-09T02:16:56;97937.31;;;20.80;nan
22964;BME280;11648;49.306;6.934;2022-09-09T02:19:37;97931.56;;;20.72;nan
22964;BME280;11648;49.306;6.934;2022-09-09T02:22:17;97936.31;;;20.66;nan
22964;BME280;11648;49.306;6.934;2022-09-09T02:24:47;97937.91;;;20.55;nan
22964;BME280;11648;49.306;6.934;2022-09-09T02:27:22;97941.75;;;20.51;nan
22964;BME280;11648;49.306;6.934;2022-09-09T02:29:51;97939.69;;;20.40;nan
22964;BME280;11648;49.306;6.934;2022-09-09T02:32:32;97937.16;;;20.37;nan
22964;BME280;11648;49.306;6.934;2022-09-09T02:35:09;97930.03;;;20.38;nan
22964;BME280;11648;49.306;6.934;2022-09-09T02:37:40;97934.69;;;20.34;nan
22964;BME280;11648;49.306;6.934;2022-09-09T02:40:10;97939.47;;;20.29;nan
22964;BME280;11648;49.306;6.934;2022-09-09T02:42:45;97930.88;;;20.22;nan
22964;BME280;11648;49.306;6.934;2022-09-09T02:45:18;97926.69;;;20.18;nan
22964;BME280;11648;49.306;6.934;2022-09-09T02:48:08;97931.06;;;20.19;nan
22964;BME280;11648;49.306;6.934;2022-09-09T02:50:49;97937.78;;;20.27;nan
22964;BME280;11648;49.306;6.934;2022-09-09T02:53:31;97928.88;;;20.26;nan
22964;BME280;11648;49.306;6.934;2022-09-09T02:56:05;97937.88;;;20.25;nan
22964;BME280;11648;49.306;6.934;2022-09-09T02:58:39;97940.31;;;20.14;nan
22964;BME280;11648;49.306;6.934;2022-09-09T03:01:06;97937.63;;;20.14;nan
22964;BME280;11648;49.306;6.934;2022-09-09T03:03:33;97940.56;;;20.09;nan
22964;BME280;11648;49.306;6.934;2022-09-09T03:06:05;97945.22;;;20.06;nan
22964;BME280;11648;49.306;6.934;2022-09-09T03:08:32;97936.25;;;20.07;nan
22964;BME280;11648;49.306;6.934;2022-09-09T03:10:59;97936.44;;;20.04;nan
22964;BME280;11648;49.306;6.934;2022-09-09T03:13:32;97942.97;;;19.98;nan
22964;BME280;11648;49.306;6.934;2022-09-09T03:16:00;97941.19;;;19.99;nan
22964;BME280;11648;49.306;6.934;2022-09-09T03:18:31;97941.25;;;19.97;nan
22964;BME280;11648;49.306;6.934;2022-09-09T03:20:58;97944.97;;;19.95;nan
22964;BME280;11648;49.306;6.934;2022-09-09T03:23:27;97947.81;;;19.92;nan
22964;BME280;11648;49.306;6.934;2022-09-09T03:25:56;97943.50;;;19.89;nan
22964;BME280;11648;49.306;6.934;2022-09-09T03:28:34;97947.81;;;19.92;nan
22964;BME280;11648;49.306;6.934;2022-09-09T03:31:04;97944.53;;;19.87;nan
22964;BME280;11648;49.306;6.934;2022-09-09T03:33:39;97947.38;;;19.84;nan
22964;BME280;11648;49.306;6.934;2022-09-09T03:36:10;97954.28;;;19.72;nan
22964;BME280;11648;49.306;6.934;2022-09-09T03:38:37;97954.44;;;19.85;nan
22964;BME280;11648;49.306;6.934;2022-09-09T03:41:05;97951.25;;;19.78;nan
22964;BME280;11648;49.306;6.934;2022-09-09T03:43:33;97946.38;;;19.86;nan
22964;BME280;11648;49.306;6.934;2022-09-09T03:46:00;97948.25;;;19.84;nan
22964;BME280;11648;49.306;6.934;2022-09-09T03:48:28;97947.13;;;19.88;nan
22964;BME280;11648;49.306;6.934;2022-09-09T03:50:56;97951.25;;;19.94;nan
22964;BME280;11648;49.306;6.934;2022-09-09T03:53:24;97956.94;;;19.88;nan
22964;BME280;11648;49.306;6.934;2022-09-09T03:55:54;97951.25;;;19.94;nan
22964;BME280;11648;49.306;6.934;2022-09-09T03:58:24;97958.75;;;20.03;nan
22964;BME280;11648;49.306;6.934;2022-09-09T04:01:14;97952.19;;;20.08;nan
22964;BME280;11648;49.306;6.934;2022-09-09T04:03:44;97953.16;;;20.07;nan
22964;BME280;11648;49.306;6.934;2022-09-09T04:06:13;97945.72;;;20.12;nan
22964;BME280;11648;49.306;6.934;2022-09-09T04:08:44;97952.13;;;20.10;nan
22964;BME280;11648;49.306;6.934;2022-09-09T04:11:13;97945.91;;;20.09;nan
22964;BME280;11648;49.306;6.934;2022-09-09T04:13:40;97954.03;;;20.08;nan
22964;BME280;11648;49.306;6.934;2022-09-09T04:16:11;97953.22;;;20.06;nan
22964;BME280;11648;49.306;6.934;2022-09-09T04:18:43;97953.06;;;20.09;nan
22964;BME280;11648;49.306;6.934;2022-09-09T04:21:11;97961.06;;;20.09;nan
22964;BME280;11648;49.306;6.934;2022-09-09T04:23:40;97961.06;;;20.09;nan
22964;BME280;11648;49.306;6.934;2022-09-09T04:26:07;97963.75;;;20.09;nan
22964;BME280;11648;49.306;6.934;2022-09-09T04:28:36;97964.34;;;20.14;nan
22964;BME280;11648;49.306;6.934;2022-09-09T04:31:15;97966.22;;;20.12;nan
22964;BME280;11648;49.306;6.934;2022-09-09T04:33:44;97957.38;;;20.11;nan
22964;BME280;11648;49.306;6.934;2022-09-09T04:36:12;97957.78;;;20.19;nan
22964;BME280;11648;49.306;6.934;2022-09-09T04:38:39;97954.84;;;20.24;nan
22964;BME280;11648;49.306;6.934;2022-09-09T04:41:06;97954.00;;;20.23;nan
22964;BME280;11648;49.306;6.934;2022-09-09T04:43:36;97958.47;;;20.23;nan
22964;BME280;11648;49.306;6.934;2022-09-09T04:46:06;97969.63;;;20.31;nan
22964;BME280;11648;49.306;6.934;2022-09-09T04:48:33;97966.75;;;20.34;nan
22964;BME280;11648;49.306;6.934;2022-09-09T04:51:04;97973.16;;;20.32;nan
22964;BME280;11648;49.306;6.934;2022-09-09T04:53:33;97975.72;;;20.33;nan
22964;BME280;11648;49.306;6.934;2022-09-09T04:56:08;97981.78;;;20.37;nan
22964;BME280;11648;49.306;6.934;2022-09-09T04:58:41;97981.78;;;20.37;nan
22964;BME280;11648;49.306;6.934;2022-09-09T05:01:15;97980.94;;;20.36;nan
22964;BME280;11648;49.306;6.934;2022-09-09T05:03:45;97972.03;;;20.36;nan
22964;BME280;11648;49.306;6.934;2022-09-09T05:06:18;97975.66;;;20.35;nan
22964;BME280;11648;49.306;6.934;2022-09-09T05:08:47;97970.56;;;20.30;nan
22964;BME280;11648;49.306;6.934;2022-09-09T05:11:20;97974.78;;;20.34;nan
22964;BME280;11648;49.306;6.934;2022-09-09T05:13:47;97978.41;;;20.33;nan
22964;BME280;11648;49.306;6.934;2022-09-09T05:16:14;97966.09;;;20.31;nan
22964;BME280;11648;49.306;6.934;2022-09-09T05:18:41;97980.31;;;20.31;nan
22964;BME280;11648;49.306;6.934;2022-09-09T05:21:10;97975.84;;;20.32;nan
22964;BME280;11648;49.306;6.934;2022-09-09T05:23:38;97974.72;;;20.36;nan
22964;BME280;11648;49.306;6.934;2022-09-09T05:26:06;97981.59;;;20.40;nan
22964;BME280;11648;49.306;6.934;2022-09-09T05:28:35;97982.38;;;20.42;nan
22964;BME280;11648;49.306;6.934;2022-09-09T05:31:07;97972.53;;;20.42;nan
22964;BME280;11648;49.306;6.934;2022-09-09T05:33:35;97974.28;;;20.43;nan
22964;BME280;11648;49.306;6.934;2022-09-09T05:36:05;97982.59;;;20.53;nan
22964;BME280;11648;49.306;6.934;2022-09-09T05:38:34;97981.47;;;20.57;nan
22964;BME280;11648;49.306;6.934;2022-09-09T05:41:02;97987.78;;;20.56;nan
22964;BME280;11648;49.306;6.934;2022-09-09T05:43:29;97979.50;;;20.60;nan
22964;BME280;11648;49.306;6.934;2022-09-09T05:48:33;97985.81;;;20.74;nan
22964;BME280;11648;49.306;6.934;2022-09-09T05:51:01;97989.31;;;20.90;nan
22964;BME280;11648;49.306;6.934;2022-09-09T05:53:29;97989.69;;;20.98;nan
22964;BME280;11648;49.306;6.934;2022-09-09T05:56:23;97994.31;;;21.10;nan
22964;BME280;11648;49.306;6.934;2022-09-09T05:58:53;97997.28;;;21.05;nan
22964;BME280;11648;49.306;6.934;2022-09-09T06:01:32;98001.78;;;21.05;nan
22964;BME280;11648;49.306;6.934;2022-09-09T06:04:01;98000.50;;;21.12;nan
22964;BME280;11648;49.306;6.934;2022-09-09T06:06:36;98004.59;;;21.17;nan
22964;BME280;11648;49.306;6.934;2022-09-09T06:09:09;97999.00;;;21.06;nan
22964;BME280;11648;49.306;6.934;2022-09-09T06:11:40;97999.19;;;21.03;nan
22964;BME280;11648;49.306;6.934;2022-09-09T06:14:07;97997.81;;;21.12;nan
22964;BME280;11648;49.306;6.934;2022-09-09T06:16:36;97998.66;;;21.12;nan
22964;BME280;11648;49.306;6.934;2022-09-09T06:19:09;97997.81;;;21.12;nan
22964;BME280;11648;49.306;6.934;2022-09-09T06:21:37;97996.66;;;21.16;nan
22964;BME280;11648;49.306;6.934;2022-09-09T06:24:06;98000.59;;;21.10;nan
22964;BME280;11648;49.306;6.934;2022-09-09T06:26:38;98005.38;;;21.19;nan
22964;BME280;11648;49.306;6.934;2022-09-09T06:29:12;97993.25;;;21.28;nan
22964;BME280;11648;49.306;6.934;2022-09-09T06:31:40;97995.16;;;21.26;nan
22964;BME280;11648;49.306;6.934;2022-09-09T06:34:34;97996.50;;;21.19;nan
22964;BME280;11648;49.306;6.934;2022-09-09T06:37:02;98011.22;;;21.26;nan
22964;BME280;11648;49.306;6.934;2022-09-09T06:39:35;98004.81;;;21.29;nan
22964;BME280;11648;49.306;6.934;2022-09-09T06:42:02;98003.69;;;21.33;nan
22964;BME280;11648;49.306;6.934;2022-09-09T06:44:42;98006.84;;;21.39;nan
22964;BME280;11648;49.306;6.934;2022-09-09T06:47:14;98009.13;;;21.45;nan
22964;BME280;11648;49.306;6.934;2022-09-09T06:49:41;98004.25;;;21.38;nan
22964;BME280;11648;49.306;6.934;2022-09-09T06:52:13;98008.84;;;21.50;nan
22964;BME280;11648;49.306;6.934;2022-09-09T06:54:40;98001.28;;;21.56;nan
22964;BME280;11648;49.306;6.934;2022-09-09T06:57:07;98010.00;;;21.60;nan
22964;BME280;11648;49.306;6.934;2022-09-09T06:59:56;98003.69;;;21.61;nan
22964;BME280;11648;49.306;6.934;2022-09-09T07:02:23;98011.06;;;21.57;nan
22964;BME280;11648;49.306;6.934;2022-09-09T07:04:51;98010.84;;;21.60;nan
22964;BME280;11648;49.306;6.934;2022-09-09T07:07:18;98004.63;;;21.74;nan
22964;BME280;11648;49.306;6.934;2022-09-09T07:09:45;98016.19;;;21.89;nan
22964;BME280;11648;49.306;6.934;2022-09-09T07:12:13;98015.00;;;21.94;nan
22964;BME280;11648;49.306;6.934;2022-09-09T07:14:47;98021.56;;;21.89;nan
22964;BME280;11648;49.306;6.934;2022-09-09T07:17:14;98016.78;;;22.08;nan
22964;BME280;11648;49.306;6.934;2022-09-09T07:19:41;98010.25;;;22.26;nan
22964;BME280;11648;49.306;6.934;2022-09-09T07:22:09;98019.06;;;22.14;nan
22964;BME280;11648;49.306;6.934;2022-09-09T07:24:37;98019.41;;;22.36;nan
22964;BME280;11648;49.306;6.934;2022-09-09T07:27:05;98027.00;;;22.56;nan
22964;BME280;11648;49.306;6.934;2022-09-09T07:29:32;98016.25;;;22.56;nan
22964;BME280;11648;49.306;6.934;2022-09-09T07:31:59;98023.91;;;22.62;nan
22964;BME280;11648;49.306;6.934;2022-09-09T07:34:32;98018.28;;;22.53;nan
22964;BME280;11648;49.306;6.934;2022-09-09T07:36:59;98029.66;;;22.56;nan
22964;BME280;11648;49.306;6.934;2022-09-09T07:39:26;98028.03;;;22.95;nan
22964;BME280;11648;49.306;6.934;2022-09-09T07:41:53;98024.09;;;23.13;nan
22964;BME280;11648;49.306;6.934;2022-09-09T07:44:25;98028.41;;;23.41;nan
22964;BME280;11648;49.306;6.934;2022-09-09T07:47:02;98030.25;;;23.40;nan
22964;BME280;11648;49.306;6.934;2022-09-09T07:49:34;98028.97;;;23.46;nan
22964;BME280;11648;49.306;6.934;2022-09-09T07:52:03;98025.75;;;23.53;nan
22964;BME280;11648;49.306;6.934;2022-09-09T07:54:31;98028.88;;;23.47;nan
22964;BME280;11648;49.306;6.934;2022-09-09T07:57:00;98027.09;;;23.21;nan
22964;BME280;11648;49.306;6.934;2022-09-09T07:59:29;98028.16;;;23.06;nan
22964;BME280;11648;49.306;6.934;2022-09-09T08:01:57;98027.47;;;22.63;nan
22964;BME280;11648;49.306;6.934;2022-09-09T08:04:28;98031.81;;;22.51;nan
22964;BME280;11648;49.306;6.934;2022-09-09T08:06:58;98027.97;;;22.82;nan
22964;BME280;11648;49.306;6.934;2022-09-09T08:09:26;98034.72;;;22.75;nan
22964;BME280;11648;49.306;6.934;2022-09-09T08:12:17;98035.56;;;23.02;nan
22964;BME280;11648;49.306;6.934;2022-09-09T08:14:45;98029.78;;;23.08;nan
22964;BME280;11648;49.306;6.934;2022-09-09T08:17:11;98043.25;;;23.34;nan
22964;BME280;11648;49.306;6.934;2022-09-09T08:19:38;98035.16;;;23.21;nan
22964;BME280;11648;49.306;6.934;2022-09-09T08:22:13;98043.50;;;23.56;nan
22964;BME280;11648;49.306;6.934;2022-09-09T08:24:39;98040.44;;;23.23;nan
22964;BME280;11648;49.306;6.934;2022-09-09T08:27:08;98038.69;;;23.22;nan
22964;BME280;11648;49.306;6.934;2022-09-09T08:29:37;98039.50;;;22.97;nan
22964;BME280;11648;49.306;6.934;2022-09-09T08:32:05;98037.59;;;22.99;nan
22964;BME280;11648;49.306;6.934;2022-09-09T08:34:33;98040.13;;;23.27;nan
22964;BME280;11648;49.306;6.934;2022-09-09T08:37:05;98039.78;;;23.32;nan
22964;BME280;11648;49.306;6.934;2022-09-09T08:39:36;98035.09;;;23.60;nan
22964;BME280;11648;49.306;6.934;2022-09-09T08:42:58;98033.59;;;23.94;nan
22964;BME280;11648;49.306;6.934;2022-09-09T08:45:14;98030.03;;;24.06;nan
22964;BME280;11648;49.306;6.934;2022-09-09T08:48:22;98025.66;;;24.66;nan
22964;BME280;11648;49.306;6.934;2022-09-09T08:50:56;98025.03;;;24.86;nan
22964;BME280;11648;49.306;6.934;2022-09-09T08:53:38;98036.53;;;25.46;nan
22964;BME280;11648;49.306;6.934;2022-09-09T08:56:11;98026.06;;;25.99;nan
22964;BME280;11648;49.306;6.934;2022-09-09T08:58:51;98012.22;;;26.26;nan
22964;BME280;11648;49.306;6.934;2022-09-09T09:04:41;97991.88;;;29.65;nan
22964;BME280;11648;49.306;6.934;2022-09-09T09:07:35;97992.78;;;31.19;nan
22964;BME280;11648;49.306;6.934;2022-09-09T09:13:15;97995.06;;;30.79;nan
22964;BME280;11648;49.306;6.934;2022-09-09T09:15:48;98011.34;;;29.51;nan
22964;BME280;11648;49.306;6.934;2022-09-09T09:18:17;98009.84;;;28.11;nan
22964;BME280;11648;49.306;6.934;2022-09-09T09:21:03;98014.25;;;27.81;nan
22964;BME280;11648;49.306;6.934;2022-09-09T09:23:41;98005.00;;;28.54;nan
22964;BME280;11648;49.306;6.934;2022-09-09T09:26:11;97985.75;;;30.09;nan
22964;BME280;11648;49.306;6.934;2022-09-09T09:28:40;97967.16;;;32.91;nan
22964;BME280;11648;49.306;6.934;2022-09-09T09:31:12;97978.28;;;33.38;nan
22964;BME280;11648;49.306;6.934;2022-09-09T09:33:49;97950.34;;;34.15;nan
22964;BME280;11648;49.306;6.934;2022-09-09T09:36:23;97967.84;;;33.74;nan
22964;BME280;11648;49.306;6.934;2022-09-09T09:38:56;97985.56;;;32.05;nan
22964;BME280;11648;49.306;6.934;2022-09-09T09:41:45;97979.72;;;29.88;nan
22964;BME280;11648;49.306;6.934;2022-09-09T09:44:23;97988.03;;;28.52;nan
22964;BME280;11648;49.306;6.934;2022-09-09T09:46:51;97987.94;;;27.42;nan
22964;BME280;11648;49.306;6.934;2022-09-09T09:49:19;98003.41;;;26.67;nan
22964;BME280;11648;49.306;6.934;2022-09-09T09:51:46;98008.59;;;27.22;nan
22964;BME280;11648;49.306;6.934;2022-09-09T09:56:46;97966.94;;;32.26;nan
22964;BME280;11648;49.306;6.934;2022-09-09T09:59:34;97950.53;;;34.14;nan
22964;BME280;11648;49.306;6.934;2022-09-09T10:02:20;97940.78;;;36.52;nan
22964;BME280;11648;49.306;6.934;2022-09-09T10:05:16;97947.38;;;35.55;nan
22964;BME280;11648;49.306;6.934;2022-09-09T10:08:11;97938.19;;;33.31;nan
22964;BME280;11648;49.306;6.934;2022-09-09T10:11:18;97961.22;;;32.38;nan
22964;BME280;11648;49.306;6.934;2022-09-09T10:24:46;97965.50;;;31.11;nan
22964;BME280;11648;49.306;6.934;2022-09-09T10:32:57;97991.50;;;28.92;nan
22964;BME280;11648;49.306;6.934;2022-09-09T10:35:52;97995.41;;;28.01;nan
22964;BME280;11648;49.306;6.934;2022-09-09T10:38:44;97997.16;;;27.51;nan
22964;BME280;11648;49.306;6.934;2022-09-09T10:55:19;98001.63;;;26.88;nan
22964;BME280;11648;49.306;6.934;2022-09-09T10:57:48;97996.06;;;27.63;nan
22964;BME280;11648;49.306;6.934;2022-09-09T11:03:01;97993.31;;;27.32;nan
22964;BME280;11648;49.306;6.934;2022-09-09T11:05:42;97977.44;;;29.74;nan
22964;BME280;11648;49.306;6.934;2022-09-09T11:08:26;97970.09;;;31.54;nan
22964;BME280;11648;49.306;6.934;2022-09-09T11:13:49;97956.41;;;31.20;nan
22964;BME280;11648;49.306;6.934;2022-09-09T11:17:00;97941.75;;;32.83;nan
22964;BME280;11648;49.306;6.934;2022-09-09T11:19:37;97935.31;;;33.32;nan
22964;BME280;11648;49.306;6.934;2022-09-09T11:24:58;97933.13;;;31.18;nan
22964;BME280;11648;49.306;6.934;2022-09-09T11:33:28;97939.00;;;30.43;nan
22964;BME280;11648;49.306;6.934;2022-09-09T11:38:49;97905.63;;;34.39;nan
22964;BME280;11648;49.306;6.934;2022-09-09T11:41:19;97908.63;;;35.95;nan
22964;BME280;11648;49.306;6.934;2022-09-09T11:43:50;97899.19;;;34.86;nan
22964;BME280;11648;49.306;6.934;2022-09-09T11:46:20;97910.88;;;33.63;nan
22964;BME280;11648;49.306;6.934;2022-09-09T11:49:04;97919.63;;;31.94;nan
22964;BME280;11648;49.306;6.934;2022-09-09T11:51:33;97943.50;;;30.87;nan
22964;BME280;11648;49.306;6.934;2022-09-09T11:56:46;97971.47;;;28.45;nan
22964;BME280;11648;49.306;6.934;2022-09-09T12:01:59;97990.88;;;27.50;nan
22964;BME280;11648;49.306;6.934;2022-09-09T12:04:39;97994.41;;;27.09;nan
22964;BME280;11648;49.306;6.934;2022-09-09T12:14:44;97977.13;;;28.73;nan
22964;BME280;11648;49.306;6.934;2022-09-09T12:17:22;97968.16;;;29.76;nan
22964;BME280;11648;49.306;6.934;2022-09-09T12:25:49;97958.84;;;31.49;nan
22964;BME280;11648;49.306;6.934;2022-09-09T12:31:28;97991.75;;;30.03;nan
22964;BME280;11648;49.306;6.934;2022-09-09T12:34:16;98005.06;;;28.73;nan
22964;BME280;11648;49.306;6.934;2022-09-09T12:36:47;98001.34;;;28.25;nan
22964;BME280;11648;49.306;6.934;2022-09-09T12:39:34;98013.13;;;27.42;nan
22964;BME280;11648;49.306;6.934;2022-09-09T12:42:04;98020.13;;;26.49;nan
22964;BME280;11648;49.306;6.934;2022-09-09T12:44:31;98030.34;;;26.01;nan
22964;BME280;11648;49.306;6.934;2022-09-09T12:47:01;98039.03;;;25.83;nan
22964;BME280;11648;49.306;6.934;2022-09-09T12:52:06;98013.66;;;24.22;nan
22964;BME280;11648;49.306;6.934;2022-09-09T12:54:35;98032.41;;;22.96;nan
22964;BME280;11648;49.306;6.934;2022-09-09T12:57:04;97987.06;;;22.25;nan
22964;BME280;11648;49.306;6.934;2022-09-09T12:59:39;97997.44;;;22.03;nan
22964;BME280;11648;49.306;6.934;2022-09-09T13:02:19;97991.44;;;21.99;nan
22964;BME280;11648;49.306;6.934;2022-09-09T13:04:46;98008.09;;;22.04;nan
22964;BME280;11648;49.306;6.934;2022-09-09T13:07:13;98004.66;;;22.29;nan
22964;BME280;11648;49.306;6.934;2022-09-09T13:09:44;98018.13;;;22.15;nan
22964;BME280;11648;49.306;6.934;2022-09-09T13:12:18;98015.84;;;22.36;nan
22964;BME280;11648;49.306;6.934;2022-09-09T13:14:51;98010.03;;;22.56;nan
22964;BME280;11648;49.306;6.934;2022-09-09T13:17:24;98005.09;;;22.77;nan
22964;BME280;11648;49.306;6.934;2022-09-09T13:19:52;98005.91;;;23.04;nan
22964;BME280;11648;49.306;6.934;2022-09-09T13:22:36;97995.50;;;23.12;nan
22964;BME280;11648;49.306;6.934;2022-09-09T13:25:17;97986.63;;;23.49;nan
22964;BME280;11648;49.306;6.934;2022-09-09T13:30:20;97964.25;;;24.71;nan
22964;BME280;11648;49.306;6.934;2022-09-09T13:35:52;97961.69;;;24.93;nan
22964;BME280;11648;49.306;6.934;2022-09-09T13:38:20;97969.97;;;25.47;nan
22964;BME280;11648;49.306;6.934;2022-09-09T13:41:03;97966.66;;;25.43;nan
22964;BME280;11648;49.306;6.934;2022-09-09T13:43:42;97969.41;;;25.77;nan
22964;BME280;11648;49.306;6.934;2022-09-09T13:46:35;97973.47;;;25.71;nan
22964;BME280;11648;49.306;6.934;2022-09-09T13:49:22;97962.91;;;25.79;nan
22964;BME280;11648;49.306;6.934;2022-09-09T13:51:51;97964.25;;;26.07;nan
22964;BME280;11648;49.306;6.934;2022-09-09T13:54:20;97956.97;;;26.41;nan
22964;BME280;11648;49.306;6.934;2022-09-09T13:56:47;97952.56;;;26.40;nan
22964;BME280;11648;49.306;6.934;2022-09-09T13:59:18;97945.06;;;27.07;nan
22964;BME280;11648;49.306;6.934;2022-09-09T14:01:46;97946.22;;;27.35;nan
22964;BME280;11648;49.306;6.934;2022-09-09T14:04:14;97947.66;;;27.60;nan
22964;BME280;11648;49.306;6.934;2022-09-09T14:06:42;97948.34;;;27.11;nan
22964;BME280;11648;49.306;6.934;2022-09-09T14:09:12;97936.78;;;26.88;nan
22964;BME280;11648;49.306;6.934;2022-09-09T14:11:39;97944.66;;;26.80;nan
22964;BME280;11648;49.306;6.934;2022-09-09T14:14:07;97936.66;;;26.58;nan
22964;BME280;11648;49.306;6.934;2022-09-09T14:16:34;97933.41;;;26.43;nan
22964;BME280;11648;49.306;6.934;2022-09-09T14:19:01;97941.97;;;26.48;nan
22964;BME280;11648;49.306;6.934;2022-09-09T14:21:28;97932.53;;;26.42;nan
22964;BME280;11648;49.306;6.934;2022-09-09T14:23:55;97948.41;;;26.68;nan
22964;BME280;11648;49.306;6.934;2022-09-09T14:26:25;97942.06;;;26.03;nan
22964;BME280;11648;49.306;6.934;2022-09-09T14:28:52;97946.97;;;25.87;nan
22964;BME280;11648;49.306;6.934;2022-09-09T14:31:22;97946.09;;;26.09;nan
22964;BME280;11648;49.306;6.934;2022-09-09T14:33:50;97946.72;;;26.24;nan
22964;BME280;11648;49.306;6.934;2022-09-09T14:36:17;97946.09;;;26.09;nan
22964;BME280;11648;49.306;6.934;2022-09-09T14:38:44;97951.53;;;25.65;nan
22964;BME280;11648;49.306;6.934;2022-09-09T14:41:13;97947.97;;;25.64;nan
22964;BME280;11648;49.306;6.934;2022-09-09T14:43:44;97939.38;;;25.81;nan
22964;BME280;11648;49.306;6.934;2022-09-09T14:46:13;97944.88;;;25.91;nan
22964;BME280;11648;49.306;6.934;2022-09-09T14:48:41;97931.44;;;25.58;nan
22964;BME280;11648;49.306;6.934;2022-09-09T14:51:19;97922.56;;;25.44;nan
22964;BME280;11648;49.306;6.934;2022-09-09T14:53:47;97933.38;;;25.89;nan
22964;BME280;11648;49.306;6.934;2022-09-09T14:56:18;97921.72;;;25.88;nan
22964;BME280;11648;49.306;6.934;2022-09-09T14:58:45;97934.63;;;25.74;nan
22964;BME280;11648;49.306;6.934;2022-09-09T15:01:15;97932.09;;;25.26;nan
22964;BME280;11648;49.306;6.934;2022-09-09T15:03:49;97931.59;;;25.10;nan
22964;BME280;11648;49.306;6.934;2022-09-09T15:06:16;97932.56;;;25.09;nan
22964;BME280;11648;49.306;6.934;2022-09-09T15:08:44;97938.03;;;24.85;nan
22964;BME280;11648;49.306;6.934;2022-09-09T15:11:14;97939.59;;;24.29;nan
22964;BME280;11648;49.306;6.934;2022-09-09T15:13:42;97948.13;;;24.23;nan
22964;BME280;11648;49.306;6.934;2022-09-09T15:16:14;97954.88;;;24.29;nan
22964;BME280;11648;49.306;6.934;2022-09-09T15:18:42;97967.31;;;23.93;nan
22964;BME280;11648;49.306;6.934;2022-09-09T15:21:12;97962.44;;;24.11;nan
22964;BME280;11648;49.306;6.934;2022-09-09T15:23:40;97962.16;;;24.03;nan
22964;BME280;11648;49.306;6.934;2022-09-09T15:26:07;97985.50;;;23.90;nan
22964;BME280;11648;49.306;6.934;2022-09-09T15:28:35;98001.56;;;23.66;nan
22964;BME280;11648;49.306;6.934;2022-09-09T15:31:15;98036.03;;;23.34;nan
22964;BME280;11648;49.306;6.934;2022-09-09T15:36:20;98013.66;;;22.69;nan
22964;BME280;11648;49.306;6.934;2022-09-09T15:38:49;98018.03;;;22.43;nan
22964;BME280;11648;49.306;6.934;2022-09-09T15:41:17;98006.63;;;22.13;nan
22964;BME280;11648;49.306;6.934;2022-09-09T15:43:46;98009.28;;;22.13;nan
22964;BME280;11648;49.306;6.934;2022-09-09T15:49:04;97994.97;;;21.86;nan
22964;BME280;11648;49.306;6.934;2022-09-09T15:51:32;97988.09;;;21.67;nan
22964;BME280;11648;49.306;6.934;2022-09-09T15:54:18;97985.59;;;21.79;nan
22964;BME280;11648;49.306;6.934;2022-09-09T15:56:53;97994.13;;;21.57;nan